Shanesville, Ohio
Current Conditions -  °F | °C
As of 5:53 AM on Wednesday 22 Oct 2014 (Local Time) from KPHD Reporting Station
Overcast Overcast  
Wind Chill: 45°   Ceiling: 1500
Heat Index: 48°   Visibility: 10mi
Dew Point: 44°   Wind: 6mph
Humidity: 86%   Direction: 360°N
Pressure: 30.14"   Gusts: NA
Location:  40.5178°N, 81.673°W
Report Text: KPHD 220953Z AUTO 36005KT 10SM BKN015 OVC021 09/07 A3014 RMK AO2 SLP210 T00890067
Loading
Personal Weather Stations






























Interactive Weather Map
Tropical Storm Tracking
New forecast layout! Learn more

10-Day Weather Forecast

Advertisements
Track Severe Weather on mobile